Time;durP1;ratioP1;P1;durP2;ratioP2;P2;SDS_P1;SDS_P2;PMS_P1;PMS_P2;Temp;Humidity;BMP_temperature;BMP_pressure;BME280_temperature;BME280_humidity;BME280_pressure;Samples;Min_cycle;Max_cycle;Signal;HPM_P1;HPM_P2
2022/09/06 00:02:14;;;;;;;1.88;1.25;;;26.70;47.70;;;;;;5018452;28;20018;-84
2022/09/06 00:04:40;;;;;;;1.45;1.20;;;26.60;47.60;;;;;;5034093;28;20025;-84
2022/09/06 00:07:06;;;;;;;1.63;1.10;;;26.60;47.70;;;;;;5016839;28;20378;-83
2022/09/06 00:09:32;;;;;;;1.33;1.20;;;26.60;47.70;;;;;;5016910;28;20160;-84
2022/09/06 00:11:57;;;;;;;1.30;1.17;;;26.60;47.70;;;;;;5035784;28;20034;-84
2022/09/06 00:14:23;;;;;;;1.88;1.25;;;26.60;47.70;;;;;;5018872;28;20029;-84
2022/09/06 00:16:49;;;;;;;1.63;1.20;;;26.50;47.70;;;;;;5019495;28;20030;-84
2022/09/06 00:19:15;;;;;;;1.10;1.00;;;26.50;47.70;;;;;;5036243;28;20030;-84
2022/09/06 00:21:40;;;;;;;1.52;1.17;;;26.50;47.80;;;;;;5034865;28;20025;-85
2022/09/06 00:24:07;;;;;;;1.33;1.17;;;26.50;47.80;;;;;;5019850;28;20584;-86
2022/09/06 00:26:32;;;;;;;1.23;1.00;;;26.50;47.80;;;;;;5019534;28;20045;-84
2022/09/06 00:28:58;;;;;;;1.40;1.20;;;26.40;47.90;;;;;;5021157;28;20428;-84
2022/09/06 00:31:26;;;;;;;1.63;1.30;;;26.40;47.90;;;;;;5036783;28;20529;-82
2022/09/06 00:33:52;;;;;;;1.00;1.00;;;26.40;47.90;;;;;;5037102;28;20033;-83
2022/09/06 00:36:19;;;;;;;1.48;1.27;;;26.40;47.90;;;;;;5019941;28;20121;-85
2022/09/06 00:38:45;;;;;;;1.40;1.20;;;26.40;48.00;;;;;;5035158;28;20048;-84
2022/09/06 00:41:13;;;;;;;1.30;1.20;;;26.30;47.90;;;;;;5002042;28;20045;-84
2022/09/06 00:43:40;;;;;;;1.58;1.42;;;26.30;48.00;;;;;;5018812;28;20029;-84
2022/09/06 00:46:08;;;;;;;1.73;1.30;;;26.40;48.10;;;;;;5036552;28;20079;-84
2022/09/06 00:48:36;;;;;;;1.35;1.20;;;26.30;48.10;;;;;;5034591;28;20034;-84
2022/09/06 00:51:06;;;;;;;0.93;0.90;;;26.30;48.10;;;;;;5017994;28;20025;-84
2022/09/06 00:53:32;;;;;;;1.40;1.10;;;26.30;48.10;;;;;;5034674;28;20033;-85
2022/09/06 00:55:58;;;;;;;1.63;1.20;;;26.20;48.10;;;;;;5035185;28;20029;-84
2022/09/06 00:58:25;;;;;;;1.67;1.20;;;26.20;48.10;;;;;;5034738;28;20037;-84
2022/09/06 01:00:51;;;;;;;1.27;1.10;;;26.20;48.20;;;;;;5001801;28;20026;-84
2022/09/06 01:03:18;;;;;;;2.15;1.17;;;26.20;48.20;;;;;;5018291;28;20030;-83
2022/09/06 01:06:21;;;;;;;1.92;1.50;;;26.20;48.30;;;;;;5051664;28;20045;-84
2022/09/06 01:09:05;;;;;;;1.63;1.25;;;26.10;48.40;;;;;;5034548;28;20041;-85
2022/09/06 01:12:15;;;;;;;1.02;1.00;;;26.10;48.50;;;;;;5034705;28;20470;-86
2022/09/06 01:15:07;;;;;;;1.17;1.08;;;26.10;48.50;;;;;;5035639;28;20486;-85
2022/09/06 01:17:47;;;;;;;1.90;1.35;;;26.10;48.50;;;;;;5018040;28;20140;-85
2022/09/06 01:20:28;;;;;;;1.40;1.20;;;26.00;48.70;;;;;;5034353;28;20033;-85
2022/09/06 01:23:15;;;;;;;1.20;1.10;;;26.00;48.80;;;;;;5034746;28;20401;-86
2022/09/06 01:25:59;;;;;;;1.63;1.02;;;26.00;48.90;;;;;;5034621;28;20056;-84
2022/09/06 01:28:29;;;;;;;1.58;1.13;;;26.00;49.00;;;;;;5018052;28;20041;-85
2022/09/06 01:31:32;;;;;;;1.42;1.20;;;25.90;49.10;;;;;;5018259;28;20052;-85
2022/09/06 01:33:57;;;;;;;1.02;1.00;;;25.90;49.30;;;;;;5018116;28;20108;-85
2022/09/06 01:36:27;;;;;;;1.40;1.13;;;25.90;49.20;;;;;;5017877;28;20055;-88
2022/09/06 01:38:53;;;;;;;1.77;1.33;;;25.90;49.40;;;;;;5034845;28;20518;-89
2022/09/06 01:41:19;;;;;;;1.80;1.30;;;25.90;49.40;;;;;;5001398;28;20081;-85
2022/09/06 01:43:48;;;;;;;2.83;1.50;;;25.80;49.40;;;;;;5018790;28;20128;-85
2022/09/06 01:46:23;;;;;;;1.67;1.20;;;25.80;49.50;;;;;;5034167;28;20029;-85
2022/09/06 01:49:04;;;;;;;1.67;1.40;;;25.80;49.60;;;;;;5035245;28;20025;-85
2022/09/06 01:51:36;;;;;;;1.33;1.23;;;25.80;49.70;;;;;;5034097;28;20030;-84
2022/09/06 01:54:02;;;;;;;1.33;1.20;;;25.80;49.70;;;;;;5035290;28;20026;-85
2022/09/06 01:57:09;;;;;;;1.17;1.08;;;25.70;49.70;;;;;;5034874;28;20510;-85
2022/09/06 01:59:59;;;;;;;1.50;1.10;;;25.70;49.80;;;;;;5032978;28;20103;-85
2022/09/06 02:02:43;;;;;;;1.48;1.20;;;25.70;49.90;;;;;;5034656;28;20091;-85
2022/09/06 02:05:21;;;;;;;2.03;1.45;;;25.70;50.00;;;;;;5034302;28;20030;-86
2022/09/06 02:07:49;;;;;;;1.65;1.35;;;25.60;50.00;;;;;;5034221;28;20037;-86
2022/09/06 02:10:28;;;;;;;1.55;1.40;;;25.60;50.00;;;;;;5034085;28;20076;-85
2022/09/06 02:12:57;;;;;;;1.17;1.10;;;25.60;50.10;;;;;;5033831;28;20030;-87
2022/09/06 02:15:31;;;;;;;1.50;1.20;;;25.60;50.20;;;;;;5034205;28;20068;-85
2022/09/06 02:18:02;;;;;;;2.95;1.33;;;25.60;50.30;;;;;;5033854;28;20454;-85
2022/09/06 02:20:35;;;;;;;1.48;1.38;;;25.60;50.40;;;;;;5033584;28;20033;-86
2022/09/06 02:23:05;;;;;;;1.95;1.38;;;25.50;50.60;;;;;;5034247;28;20029;-85
2022/09/06 02:25:40;;;;;;;1.98;1.40;;;25.50;50.60;;;;;;5033921;28;20025;-85
2022/09/06 02:28:07;;;;;;;1.30;1.20;;;25.50;50.70;;;;;;5033856;28;20056;-86
2022/09/06 02:30:46;;;;;;;2.45;1.58;;;25.50;50.70;;;;;;5034978;28;20025;-86
2022/09/06 02:33:18;;;;;;;1.48;1.17;;;25.50;50.90;;;;;;5035676;28;20049;-84
2022/09/06 02:35:46;;;;;;;2.50;1.60;;;25.40;50.90;;;;;;5034113;28;20030;-85
2022/09/06 02:38:12;;;;;;;1.65;1.42;;;25.40;50.90;;;;;;5001504;28;20502;-85
2022/09/06 02:40:39;;;;;;;2.08;1.42;;;25.40;51.00;;;;;;5033338;28;20143;-85
2022/09/06 02:43:05;;;;;;;1.50;1.40;;;25.40;51.10;;;;;;5001447;28;20034;-85
2022/09/06 02:45:30;;;;;;;1.92;1.67;;;25.30;51.10;;;;;;5033662;28;20033;-86
2022/09/06 02:47:56;;;;;;;1.80;1.40;;;25.30;51.30;;;;;;5000846;28;20036;-85
2022/09/06 02:50:22;;;;;;;1.67;1.50;;;25.30;51.40;;;;;;5037118;28;20076;-86
2022/09/06 02:53:03;;;;;;;1.58;1.38;;;25.30;51.40;;;;;;5005694;28;20021;-85
2022/09/06 02:55:29;;;;;;;2.22;1.60;;;25.30;51.60;;;;;;5040117;28;20030;-85
2022/09/06 02:57:55;;;;;;;2.42;1.40;;;25.30;51.60;;;;;;5039249;28;20041;-84
2022/09/06 03:00:20;;;;;;;2.22;1.52;;;25.30;51.70;;;;;;5017404;28;20029;-85
2022/09/06 03:02:46;;;;;;;1.98;1.40;;;25.20;51.70;;;;;;5034438;28;20041;-85
2022/09/06 03:05:12;;;;;;;2.00;1.50;;;25.20;51.80;;;;;;5001197;28;20451;-85
2022/09/06 03:07:38;;;;;;;1.67;1.38;;;25.20;51.80;;;;;;5032684;28;20490;-85
2022/09/06 03:10:04;;;;;;;2.00;1.30;;;25.20;51.80;;;;;;5016093;28;20030;-85
2022/09/06 03:12:30;;;;;;;2.45;1.65;;;25.10;51.80;;;;;;5017396;28;20032;-85
2022/09/06 03:14:55;;;;;;;2.42;1.70;;;25.10;51.90;;;;;;5033914;28;20430;-86
2022/09/06 03:17:21;;;;;;;1.50;1.40;;;25.10;51.90;;;;;;5016253;28;20344;-86
2022/09/06 03:19:47;;;;;;;1.30;1.20;;;25.10;52.00;;;;;;5016876;28;20425;-85
2022/09/06 03:22:13;;;;;;;1.75;1.65;;;25.10;52.00;;;;;;5034072;28;20061;-85
2022/09/06 03:24:39;;;;;;;2.13;1.45;;;25.00;51.90;;;;;;5032618;28;20441;-85
2022/09/06 03:27:04;;;;;;;1.85;1.45;;;25.00;52.00;;;;;;5016305;28;20042;-85
2022/09/06 03:29:30;;;;;;;2.05;1.48;;;25.00;52.00;;;;;;5032996;28;20113;-84
2022/09/06 03:31:56;;;;;;;1.88;1.35;;;25.00;52.10;;;;;;5016797;28;20101;-84
2022/09/06 03:34:22;;;;;;;2.50;1.70;;;24.90;52.10;;;;;;5016716;28;20041;-85
2022/09/06 03:36:47;;;;;;;1.80;1.60;;;24.90;52.10;;;;;;5016046;28;20052;-85
2022/09/06 03:39:13;;;;;;;2.15;1.55;;;24.90;52.20;;;;;;5032753;28;20049;-84
2022/09/06 03:41:39;;;;;;;1.63;1.23;;;24.90;52.20;;;;;;5015599;28;20048;-85
2022/09/06 03:44:04;;;;;;;1.90;1.58;;;24.80;52.20;;;;;;5032702;28;20080;-85
2022/09/06 03:46:30;;;;;;;1.70;1.50;;;24.80;52.30;;;;;;5036606;28;20442;-84
2022/09/06 03:48:57;;;;;;;1.77;1.60;;;24.80;52.30;;;;;;5020284;28;20116;-84
2022/09/06 03:51:23;;;;;;;1.55;1.45;;;24.80;52.40;;;;;;5036438;28;20033;-84
2022/09/06 03:53:49;;;;;;;1.67;1.50;;;24.80;52.40;;;;;;5036328;28;20033;-84
2022/09/06 03:56:14;;;;;;;1.40;1.30;;;24.70;52.40;;;;;;5003255;28;20030;-85
2022/09/06 03:58:40;;;;;;;1.58;1.40;;;24.70;52.50;;;;;;5036033;28;20124;-85
2022/09/06 04:01:08;;;;;;;1.85;1.50;;;24.70;52.50;;;;;;5020391;28;20035;-85
2022/09/06 04:03:35;;;;;;;1.88;1.45;;;24.60;52.50;;;;;;5037549;28;20033;-85
2022/09/06 04:06:02;;;;;;;1.67;1.30;;;24.60;52.60;;;;;;5036989;28;20021;-84
2022/09/06 04:08:28;;;;;;;1.67;1.50;;;24.60;52.70;;;;;;5035834;28;20037;-85
2022/09/06 04:10:55;;;;;;;1.45;1.35;;;24.60;52.70;;;;;;5036118;28;20034;-86
2022/09/06 04:13:22;;;;;;;1.65;1.40;;;24.60;52.70;;;;;;5037359;28;20112;-88
2022/09/06 04:15:48;;;;;;;1.33;1.23;;;24.60;52.80;;;;;;5019691;28;20026;-86
2022/09/06 04:18:15;;;;;;;1.25;1.15;;;24.50;52.80;;;;;;5036509;28;20074;-85
2022/09/06 04:20:41;;;;;;;1.40;1.30;;;24.50;52.80;;;;;;5002927;28;20031;-85
2022/09/06 04:23:07;;;;;;;2.20;1.45;;;24.50;52.80;;;;;;5019693;28;20041;-86
2022/09/06 04:25:33;;;;;;;1.83;1.40;;;24.40;52.80;;;;;;5019161;28;20049;-86
2022/09/06 04:27:59;;;;;;;2.20;1.50;;;24.50;53.00;;;;;;5019458;28;20037;-84
2022/09/06 04:30:25;;;;;;;1.40;1.30;;;24.40;52.90;;;;;;5035616;28;20037;-84
2022/09/06 04:32:51;;;;;;;1.63;1.33;;;24.40;53.00;;;;;;5019046;28;20046;-85
2022/09/06 04:35:16;;;;;;;2.03;1.77;;;24.40;53.00;;;;;;5002750;28;20029;-85
2022/09/06 04:37:42;;;;;;;3.10;1.80;;;24.40;53.10;;;;;;5018874;28;20045;-85
2022/09/06 04:40:08;;;;;;;2.47;1.60;;;24.40;53.10;;;;;;5018403;28;20095;-85
2022/09/06 04:42:34;;;;;;;1.55;1.40;;;24.30;53.10;;;;;;5017604;28;20422;-85
2022/09/06 04:45:00;;;;;;;1.55;1.38;;;24.30;53.10;;;;;;5017898;28;20492;-84
2022/09/06 04:47:26;;;;;;;1.45;1.35;;;24.30;53.10;;;;;;5034123;28;20029;-84
2022/09/06 04:49:52;;;;;;;2.20;1.60;;;24.30;53.20;;;;;;5035219;28;20022;-84
2022/09/06 04:52:18;;;;;;;1.58;1.35;;;24.20;53.20;;;;;;5034037;28;20053;-85
2022/09/06 04:54:44;;;;;;;1.95;1.65;;;24.20;53.20;;;;;;5017150;28;20060;-85
2022/09/06 04:57:10;;;;;;;1.58;1.30;;;24.20;53.20;;;;;;5017462;28;20069;-85
2022/09/06 04:59:36;;;;;;;1.80;1.50;;;24.20;53.30;;;;;;5034868;28;20037;-85
2022/09/06 05:02:02;;;;;;;1.88;1.30;;;24.20;53.40;;;;;;5018131;28;20059;-84
2022/09/06 05:04:28;;;;;;;1.77;1.40;;;24.20;53.40;;;;;;5017517;28;20492;-83
2022/09/06 05:07:05;;;;;;;1.75;1.52;;;24.20;53.50;;;;;;5034302;28;20037;-84
2022/09/06 05:09:32;;;;;;;1.83;1.50;;;24.10;53.60;;;;;;5035150;28;20432;-83
2022/09/06 05:11:58;;;;;;;1.85;1.50;;;24.10;53.40;;;;;;5033694;28;20030;-84
2022/09/06 05:14:25;;;;;;;2.05;1.60;;;24.10;53.60;;;;;;5017782;28;20060;-83
2022/09/06 05:16:51;;;;;;;2.10;1.70;;;24.10;53.60;;;;;;5033896;28;20021;-83
2022/09/06 05:19:17;;;;;;;1.63;1.50;;;24.00;53.60;;;;;;5017513;28;20124;-83
2022/09/06 05:21:43;;;;;;;2.33;1.63;;;24.10;53.70;;;;;;5033576;28;20025;-84
2022/09/06 05:24:10;;;;;;;2.70;1.40;;;24.00;53.70;;;;;;5033354;28;20083;-85
2022/09/06 05:26:35;;;;;;;1.38;1.25;;;24.00;53.80;;;;;;5017064;28;20116;-86
2022/09/06 05:29:01;;;;;;;1.45;1.35;;;24.00;53.90;;;;;;5033538;28;20061;-86
2022/09/06 05:31:29;;;;;;;1.35;1.25;;;24.00;53.90;;;;;;5017056;28;20021;-85
2022/09/06 05:33:56;;;;;;;2.00;1.50;;;24.00;53.90;;;;;;5033009;28;20061;-85
2022/09/06 05:36:22;;;;;;;1.65;1.52;;;24.00;53.90;;;;;;5016902;28;20041;-85
2022/09/06 05:38:50;;;;;;;1.30;1.20;;;24.00;54.00;;;;;;5016606;28;20108;-83
2022/09/06 05:41:16;;;;;;;1.63;1.38;;;23.90;54.00;;;;;;4995775;28;1142146;-83
2022/09/06 05:43:42;;;;;;;2.08;1.63;;;23.90;54.10;;;;;;5017442;28;20033;-84
2022/09/06 05:46:09;;;;;;;1.98;1.48;;;23.90;54.10;;;;;;5017186;28;20133;-84
2022/09/06 05:48:35;;;;;;;1.67;1.50;;;23.90;54.20;;;;;;5017413;28;20041;-84
2022/09/06 05:51:02;;;;;;;1.90;1.58;;;23.90;54.20;;;;;;5017574;28;20113;-84
2022/09/06 05:53:38;;;;;;;1.98;1.63;;;23.90;54.30;;;;;;5018132;28;20029;-83
2022/09/06 05:56:04;;;;;;;2.22;1.40;;;23.80;54.40;;;;;;5033962;28;20496;-84
2022/09/06 05:58:31;;;;;;;1.67;1.50;;;23.80;55.00;;;;;;5033866;28;20393;-83
2022/09/06 06:01:03;;;;;;;1.98;1.67;;;23.80;54.40;;;;;;5017683;28;20037;-84
2022/09/06 06:03:29;;;;;;;1.50;1.40;;;23.80;54.50;;;;;;5017158;28;20540;-84
2022/09/06 06:05:55;;;;;;;1.80;1.40;;;23.80;54.50;;;;;;5000756;28;20120;-85
2022/09/06 06:08:21;;;;;;;1.80;1.50;;;23.80;54.50;;;;;;5032815;28;20048;-84
2022/09/06 06:10:46;;;;;;;2.63;1.60;;;23.80;54.60;;;;;;5000646;28;20033;-84
2022/09/06 06:13:12;;;;;;;1.90;1.45;;;23.70;54.60;;;;;;5033550;28;20043;-83
2022/09/06 06:15:38;;;;;;;1.70;1.40;;;23.70;54.60;;;;;;5017005;28;20462;-84
2022/09/06 06:18:04;;;;;;;1.90;1.50;;;23.70;54.60;;;;;;5033456;28;20044;-84
2022/09/06 06:20:30;;;;;;;1.60;1.50;;;23.70;54.70;;;;;;5033424;28;20424;-85
2022/09/06 06:22:55;;;;;;;2.03;1.63;;;23.70;54.70;;;;;;5033943;28;20025;-84
2022/09/06 06:25:24;;;;;;;1.67;1.35;;;23.60;54.70;;;;;;5017465;28;20515;-83
2022/09/06 06:27:51;;;;;;;1.90;1.48;;;23.70;54.70;;;;;;5017218;28;20060;-84
2022/09/06 06:30:17;;;;;;;1.58;1.45;;;23.60;54.70;;;;;;5016756;28;20022;-83
2022/09/06 06:32:43;;;;;;;2.30;1.70;;;23.70;54.80;;;;;;5000291;28;20044;-85
2022/09/06 06:35:09;;;;;;;1.70;1.60;;;23.60;54.80;;;;;;5016708;28;20022;-84
2022/09/06 06:37:34;;;;;;;1.70;1.60;;;23.60;54.90;;;;;;5000230;28;20394;-83
2022/09/06 06:40:00;;;;;;;2.85;1.63;;;23.60;54.90;;;;;;5016623;28;20076;-82
2022/09/06 06:42:26;;;;;;;2.55;1.80;;;23.60;54.90;;;;;;5016752;28;20489;-83
2022/09/06 06:44:52;;;;;;;1.88;1.73;;;23.60;54.90;;;;;;5033049;28;20036;-84
2022/09/06 06:47:19;;;;;;;3.47;1.75;;;23.60;54.90;;;;;;5032734;28;20397;-84
2022/09/06 06:49:44;;;;;;;2.28;1.85;;;23.60;55.00;;;;;;5016388;28;20455;-84
2022/09/06 06:52:10;;;;;;;1.90;1.60;;;23.60;55.00;;;;;;5016364;28;20125;-84
2022/09/06 06:54:36;;;;;;;2.10;1.77;;;23.50;54.90;;;;;;5016270;28;20029;-86
2022/09/06 06:57:03;;;;;;;2.25;1.77;;;23.50;55.00;;;;;;5016081;28;20038;-84
2022/09/06 06:59:30;;;;;;;1.75;1.63;;;23.50;55.00;;;;;;5032760;28;20025;-86
2022/09/06 07:01:58;;;;;;;2.00;1.80;;;23.50;54.90;;;;;;5016670;28;20454;-84
2022/09/06 07:04:24;;;;;;;2.90;1.95;;;23.50;54.90;;;;;;5016186;28;20033;-84
2022/09/06 07:06:52;;;;;;;3.35;1.80;;;23.50;54.90;;;;;;5016038;28;20033;-86
2022/09/06 07:09:19;;;;;;;2.30;1.80;;;23.50;55.00;;;;;;5032271;28;20029;-84
2022/09/06 07:11:47;;;;;;;3.38;1.80;;;23.50;55.00;;;;;;5000607;28;20033;-85
2022/09/06 07:14:12;;;;;;;2.22;1.80;;;23.50;55.00;;;;;;5033004;28;20539;-85
2022/09/06 07:16:38;;;;;;;1.67;1.55;;;23.50;55.00;;;;;;5016547;28;20033;-85
2022/09/06 07:19:04;;;;;;;2.13;1.77;;;23.50;55.10;;;;;;5016766;28;20484;-86
2022/09/06 07:21:30;;;;;;;2.10;1.70;;;23.50;55.10;;;;;;4999805;28;20022;-85
2022/09/06 07:23:56;;;;;;;3.30;1.63;;;23.50;55.10;;;;;;5016051;28;20500;-85
2022/09/06 07:26:26;;;;;;;2.25;1.85;;;23.40;55.10;;;;;;5015936;28;20452;-86
2022/09/06 07:28:54;;;;;;;2.65;1.67;;;23.50;55.10;;;;;;5016385;28;20119;-85
2022/09/06 07:31:20;;;;;;;1.88;1.65;;;23.40;55.10;;;;;;5015950;28;20021;-86
2022/09/06 07:33:46;;;;;;;2.42;1.60;;;23.40;55.10;;;;;;5015895;28;20528;-85
2022/09/06 07:36:12;;;;;;;2.10;1.90;;;23.40;55.10;;;;;;5016418;28;20529;-85
2022/09/06 07:38:39;;;;;;;2.03;1.60;;;23.40;55.20;;;;;;5015648;28;20045;-85
2022/09/06 07:41:07;;;;;;;2.00;1.80;;;23.40;55.20;;;;;;5016078;28;20056;-85
2022/09/06 07:43:33;;;;;;;2.53;2.03;;;23.40;55.20;;;;;;5032454;28;20087;-85
2022/09/06 07:46:14;;;;;;;2.40;1.90;;;23.40;55.30;;;;;;5032261;28;20034;-87
2022/09/06 07:48:42;;;;;;;2.25;1.70;;;23.40;55.40;;;;;;5032261;28;20494;-86
2022/09/06 07:51:14;;;;;;;2.03;1.83;;;23.40;55.30;;;;;;5032343;28;20462;-86
2022/09/06 07:53:41;;;;;;;3.05;1.75;;;23.40;55.30;;;;;;5032493;28;20026;-86
2022/09/06 07:56:09;;;;;;;2.00;1.83;;;23.40;55.30;;;;;;5016518;28;20025;-86
2022/09/06 07:58:34;;;;;;;2.00;1.80;;;23.40;55.30;;;;;;5032352;28;20140;-86
2022/09/06 08:01:36;;;;;;;2.72;1.75;;;23.40;55.30;;;;;;5016035;28;20455;-85
2022/09/06 08:04:02;;;;;;;2.45;1.85;;;23.40;55.50;;;;;;5031710;28;20037;-84
2022/09/06 08:06:31;;;;;;;2.40;1.90;;;23.40;55.30;;;;;;5015519;28;20101;-84
2022/09/06 08:08:57;;;;;;;2.60;1.85;;;23.40;55.40;;;;;;5033062;28;20032;-85
2022/09/06 08:11:25;;;;;;;2.08;1.80;;;23.40;55.40;;;;;;5032283;28;20398;-83
2022/09/06 08:13:55;;;;;;;2.05;1.80;;;23.30;55.40;;;;;;5031700;28;20500;-84
2022/09/06 08:16:24;;;;;;;2.00;1.70;;;23.40;55.40;;;;;;5033203;28;20075;-83
2022/09/06 08:18:52;;;;;;;2.45;1.83;;;23.40;55.40;;;;;;5032838;28;20030;-86
2022/09/06 08:21:18;;;;;;;2.22;1.67;;;23.40;55.40;;;;;;5032315;28;20038;-85
2022/09/06 08:23:52;;;;;;;2.00;1.70;;;23.40;55.40;;;;;;5033447;28;20025;-85
2022/09/06 08:26:20;;;;;;;2.35;1.90;;;23.40;55.50;;;;;;5032598;28;20025;-85
2022/09/06 08:28:45;;;;;;;2.50;1.92;;;23.40;55.40;;;;;;5032269;28;20052;-85
2022/09/06 08:31:14;;;;;;;2.33;1.67;;;23.40;55.40;;;;;;5034706;28;20036;-86
2022/09/06 08:33:40;;;;;;;1.60;1.50;;;23.40;55.40;;;;;;5036315;28;20045;-84
2022/09/06 08:36:07;;;;;;;1.70;1.40;;;23.50;55.40;;;;;;5019670;28;20037;-86
2022/09/06 08:38:33;;;;;;;2.10;1.65;;;23.40;55.30;;;;;;5020556;28;20116;-85
2022/09/06 08:41:17;;;;;;;2.05;1.60;;;23.40;55.30;;;;;;5018708;28;20049;-84
2022/09/06 08:44:13;;;;;;;2.25;1.50;;;23.50;55.40;;;;;;5036679;28;20045;-87
2022/09/06 08:47:01;;;;;;;1.73;1.58;;;23.50;55.40;;;;;;5034682;28;20046;-85
2022/09/06 08:49:31;;;;;;;1.55;1.45;;;23.60;55.40;;;;;;5037706;28;20033;-83
2022/09/06 08:52:25;;;;;;;2.17;1.75;;;23.60;55.30;;;;;;5021135;28;20029;-84
2022/09/06 08:55:09;;;;;;;2.55;1.70;;;23.60;55.40;;;;;;5037355;28;20033;-86
2022/09/06 08:57:44;;;;;;;1.42;1.33;;;23.60;55.30;;;;;;5019229;28;20463;-87
2022/09/06 09:00:12;;;;;;;1.92;1.70;;;23.70;55.10;;;;;;5035763;28;20477;-86
2022/09/06 09:02:44;;;;;;;1.70;1.60;;;23.70;55.10;;;;;;5002798;28;20049;-87
2022/09/06 09:05:20;;;;;;;3.50;1.52;;;23.80;55.20;;;;;;5035760;28;20030;-89
2022/09/06 09:07:59;;;;;;;1.73;1.60;;;23.80;55.20;;;;;;5035327;28;20029;-87
2022/09/06 09:10:31;;;;;;;2.15;1.60;;;23.90;55.20;;;;;;5035341;28;20480;-85
2022/09/06 09:13:01;;;;;;;1.65;1.50;;;23.90;55.10;;;;;;5035144;28;20033;-85
2022/09/06 09:15:27;;;;;;;2.83;1.73;;;24.00;55.00;;;;;;5034824;28;20026;-85
2022/09/06 09:17:54;;;;;;;2.00;1.70;;;24.10;55.00;;;;;;5034883;28;20034;-82
2022/09/06 09:20:20;;;;;;;1.80;1.60;;;24.20;55.00;;;;;;5018889;28;20037;-85
2022/09/06 09:22:46;;;;;;;2.03;1.67;;;24.20;54.90;;;;;;5018694;28;20076;-84
2022/09/06 09:25:20;;;;;;;2.30;1.80;;;24.30;54.80;;;;;;5034928;28;20032;-85
2022/09/06 09:27:49;;;;;;;1.60;1.40;;;24.30;54.80;;;;;;5035177;28;20034;-86
2022/09/06 09:30:14;;;;;;;2.15;1.50;;;24.40;54.70;;;;;;5035842;28;20060;-84
2022/09/06 09:32:43;;;;;;;2.60;1.60;;;24.50;54.70;;;;;;5018306;28;20057;-88
2022/09/06 09:35:20;;;;;;;1.63;1.35;;;24.60;54.70;;;;;;5017848;28;20112;-85
2022/09/06 09:38:12;;;;;;;1.42;1.23;;;24.60;54.70;;;;;;5035601;28;20474;-85
2022/09/06 09:41:00;;;;;;;1.20;1.10;;;24.70;54.70;;;;;;5018081;28;20054;-86
2022/09/06 09:43:35;;;;;;;1.30;1.20;;;24.80;54.60;;;;;;5017105;28;20060;-86
2022/09/06 09:46:22;;;;;;;1.30;1.20;;;24.90;54.50;;;;;;5034746;28;20033;-86
2022/09/06 09:49:25;;;;;;;2.10;1.30;;;25.00;54.50;;;;;;5034927;28;20099;-84
2022/09/06 09:52:12;;;;;;;1.65;1.50;;;25.10;54.60;;;;;;5034700;28;20053;-86
2022/09/06 09:54:42;;;;;;;1.63;1.15;;;25.20;54.60;;;;;;5034616;28;20026;-85
2022/09/06 09:57:10;;;;;;;1.40;1.30;;;25.20;54.40;;;;;;5036378;28;20031;-85
2022/09/06 09:59:44;;;;;;;1.90;1.27;;;25.30;54.40;;;;;;5018592;28;20028;-85
2022/09/06 10:02:22;;;;;;;;;;;25.40;54.40;;;;;;5034784;28;20108;-84
2022/09/06 10:04:51;;;;;;;2.00;1.30;;;25.50;54.20;;;;;;5033897;28;19992;-86
2022/09/06 10:07:22;;;;;;;1.38;1.27;;;25.60;54.10;;;;;;5018650;28;20064;-90
2022/09/06 10:10:09;;;;;;;2.25;1.30;;;25.70;54.40;;;;;;5019185;28;20566;-91
2022/09/06 10:12:40;;;;;;;1.63;1.35;;;25.80;54.50;;;;;;5018568;28;20029;-90
2022/09/06 10:15:08;;;;;;;1.73;1.30;;;25.90;54.50;;;;;;5034538;28;20021;-83
2022/09/06 10:17:43;;;;;;;1.30;1.00;;;26.00;54.50;;;;;;5035387;28;20033;-86
2022/09/06 10:20:10;;;;;;;;;;;26.10;54.60;;;;;;5035320;28;20478;-86
2022/09/06 10:22:54;;;;;;;1.33;1.20;;;26.20;54.40;;;;;;5033900;28;19901;-88
2022/09/06 10:25:51;;;;;;;1.33;1.10;;;26.30;54.50;;;;;;5034258;28;20032;-86
2022/09/06 10:28:30;;;;;;;1.15;1.05;;;26.40;54.70;;;;;;5014914;28;20052;-87
2022/09/06 10:31:23;;;;;;;1.02;0.93;;;26.50;54.70;;;;;;5033242;28;20033;-84
2022/09/06 10:34:20;;;;;;;1.20;1.10;;;26.50;54.80;;;;;;5034157;28;20034;-83
2022/09/06 10:37:05;;;;;;;1.33;1.10;;;26.70;54.80;;;;;;5033356;28;20033;-83
2022/09/06 10:39:49;;;;;;;;;;;26.80;54.80;;;;;;5033193;28;20064;-82
2022/09/06 10:42:21;;;;;;;0.85;0.85;;;26.90;54.60;;;;;;5049585;28;19948;-83
2022/09/06 10:45:15;;;;;;;0.98;0.95;;;27.00;54.60;;;;;;5032916;28;20083;-83
2022/09/06 10:48:08;;;;;;;1.70;1.15;;;27.10;54.90;;;;;;5033481;28;20037;-85
2022/09/06 10:50:57;;;;;;;1.25;1.10;;;27.20;55.00;;;;;;5014165;28;20041;-85
2022/09/06 10:53:28;;;;;;;1.20;1.10;;;27.30;54.90;;;;;;5032527;28;20088;-83
2022/09/06 10:56:13;;;;;;;1.33;1.10;;;27.40;54.90;;;;;;5032887;28;20499;-83
2022/09/06 10:58:55;;;;;;;1.60;1.20;;;27.50;55.10;;;;;;5016940;28;20037;-84
2022/09/06 11:01:32;;;;;;;1.48;1.10;;;27.60;55.10;;;;;;5034018;28;20030;-84
2022/09/06 11:03:59;;;;;;;1.20;1.10;;;27.70;55.10;;;;;;5033150;28;20030;-83
2022/09/06 11:06:31;;;;;;;1.20;1.08;;;27.80;55.10;;;;;;4999733;28;20431;-83
2022/09/06 11:09:21;;;;;;;1.30;1.20;;;27.80;55.20;;;;;;5016444;28;20029;-84
2022/09/06 11:11:57;;;;;;;1.55;1.00;;;27.90;55.30;;;;;;5016067;28;20076;-83
2022/09/06 11:14:26;;;;;;;1.27;0.98;;;28.00;55.30;;;;;;5032572;28;20120;-84
2022/09/06 11:17:01;;;;;;;1.17;1.10;;;28.00;55.30;;;;;;5032375;28;20470;-84
2022/09/06 11:19:51;;;;;;;1.27;1.15;;;28.10;55.50;;;;;;5032526;28;20029;-84
2022/09/06 11:22:45;;;;;;;1.77;1.10;;;28.20;55.60;;;;;;5033219;28;20045;-84
2022/09/06 11:25:25;;;;;;;1.33;1.23;;;28.20;55.70;;;;;;5031689;28;20041;-84
2022/09/06 11:27:54;;;;;;;1.55;1.10;;;28.30;55.80;;;;;;5032708;28;20044;-83
2022/09/06 11:30:21;;;;;;;1.00;1.00;;;28.30;55.80;;;;;;5032059;28;20025;-81
2022/09/06 11:33:24;;;;;;;0.90;0.90;;;28.40;55.90;;;;;;5016199;28;20044;-85
2022/09/06 11:35:50;;;;;;;1.20;1.10;;;28.30;56.00;;;;;;5033777;28;20052;-85
2022/09/06 11:38:16;;;;;;;1.13;1.02;;;28.40;55.90;;;;;;5032894;28;20029;-85
2022/09/06 11:41:04;;;;;;;1.65;1.10;;;28.50;56.10;;;;;;5032499;28;20439;-85
2022/09/06 11:43:47;;;;;;;1.17;1.08;;;28.50;56.30;;;;;;5034389;28;20080;-85
2022/09/06 11:46:34;;;;;;;1.17;1.05;;;28.60;56.50;;;;;;5033172;28;20264;-87
2022/09/06 11:49:26;;;;;;;1.85;1.00;;;28.60;56.60;;;;;;5033427;28;20033;-90
2022/09/06 11:51:52;;;;;;;1.05;0.80;;;28.60;56.50;;;;;;5033974;28;20454;-86
2022/09/06 11:54:18;;;;;;;1.42;1.05;;;28.60;56.50;;;;;;5019040;28;20025;-87
2022/09/06 11:56:53;;;;;;;1.10;1.00;;;28.70;56.70;;;;;;5035981;28;20111;-88
2022/09/06 11:59:27;;;;;;;1.15;1.05;;;28.70;56.80;;;;;;5036499;28;20049;-89
2022/09/06 12:02:17;;;;;;;0.80;0.80;;;28.70;56.80;;;;;;5035182;28;20033;-87
2022/09/06 12:04:59;;;;;;;0.88;0.88;;;28.70;56.80;;;;;;5034219;28;20037;-88
2022/09/06 12:07:29;;;;;;;1.23;0.93;;;28.70;56.80;;;;;;5038005;28;20037;-88
2022/09/06 12:09:56;;;;;;;0.77;0.77;;;28.80;56.70;;;;;;5021599;28;20048;-88
2022/09/06 12:12:41;;;;;;;0.98;0.90;;;28.80;56.60;;;;;;5020513;28;20026;-87
2022/09/06 12:15:28;;;;;;;1.10;1.00;;;28.80;56.60;;;;;;5021425;28;20040;-88
2022/09/06 12:17:54;;;;;;;1.23;0.77;;;28.80;56.50;;;;;;5038337;28;20040;-87
2022/09/06 12:20:50;;;;;;;1.20;1.10;;;28.90;56.30;;;;;;5004705;28;20454;-88
2022/09/06 12:23:34;;;;;;;0.95;0.90;;;28.80;56.20;;;;;;5036873;28;20060;-87
2022/09/06 12:26:02;;;;;;;1.25;1.00;;;28.90;56.20;;;;;;5037035;28;20029;-87
2022/09/06 12:28:38;;;;;;;1.10;1.00;;;28.90;55.90;;;;;;5036001;28;20099;-89
2022/09/06 12:31:25;;;;;;;0.90;0.90;;;28.90;55.80;;;;;;5036396;28;20034;-87
2022/09/06 12:33:53;;;;;;;0.90;0.90;;;28.90;55.80;;;;;;5037318;28;20030;-88
2022/09/06 12:36:30;;;;;;;1.38;1.00;;;28.90;55.50;;;;;;5019870;28;20029;-87
2022/09/06 12:39:02;;;;;;;1.10;1.00;;;28.90;55.50;;;;;;5037337;28;20051;-88
2022/09/06 12:41:31;;;;;;;0.90;0.90;;;28.90;55.30;;;;;;5019270;28;20045;-86
2022/09/06 12:44:03;;;;;;;1.02;1.00;;;29.00;55.20;;;;;;5035902;28;20021;-87
2022/09/06 12:46:31;;;;;;;0.90;0.90;;;29.00;55.10;;;;;;5036042;28;20030;-88
2022/09/06 12:49:02;;;;;;;1.98;1.33;;;29.00;55.00;;;;;;5036829;28;20026;-88
2022/09/06 12:51:28;;;;;;;0.90;0.90;;;29.00;54.90;;;;;;5036290;28;20120;-87
2022/09/06 12:53:58;;;;;;;1.02;0.93;;;29.00;54.80;;;;;;5036289;28;20102;-86
2022/09/06 12:56:25;;;;;;;1.02;0.90;;;29.00;54.60;;;;;;5035924;28;20025;-88
2022/09/06 12:58:51;;;;;;;1.30;1.10;;;29.00;54.50;;;;;;5036149;28;20032;-87
2022/09/06 13:01:31;;;;;;;1.27;1.10;;;29.10;54.50;;;;;;5019016;28;20040;-85
2022/09/06 13:04:11;;;;;;;1.17;1.08;;;29.10;54.50;;;;;;5035235;28;20033;-87
2022/09/06 13:06:41;;;;;;;0.80;0.80;;;29.10;54.40;;;;;;5035508;28;20021;-86
2022/09/06 13:09:12;;;;;;;1.60;1.00;;;29.10;54.20;;;;;;5035387;28;20087;-87
2022/09/06 13:11:44;;;;;;;1.10;1.00;;;29.10;54.10;;;;;;5035185;28;20075;-88